Flight Track Log - Related Links

Times and Time Zones

All times are in EDT time to prevent confusion due to time zone crossing. See the MTN7305 flight status page for this flight to view local times or setup timezone preferences in your user account.

Time Position Orientation Groundspeed Altitude Reporting Facility
EDT Latitude Longitude Course Direction KTS MPH feet Rate Location/Type
Tue 11:08:55 PM 39.1833 -76.7000 322° Northwest 98 113 1,000  Level Potomac TRACON
Tue 11:10:01 PM 39.2000 -76.7167 322° Northwest 110 127 1,600 619 Climbing Potomac TRACON
Tue 11:11:01 PM 39.2333 -76.7167 360° North 135 155 2,300 650 Climbing Potomac TRACON
Tue 11:12:01 PM 39.2667 -76.6667 49° Northeast 134 154 2,900 632 Climbing Potomac TRACON
Tue 11:12:55 PM 39.2833 -76.6333 57° Northeast 132 152 3,500 579 Climbing Potomac TRACON
Tue 11:13:55 PM 39.3000 -76.6000 57° Northeast 135 155 4,000 571 Climbing Potomac TRACON
Tue 11:15:01 PM 39.3333 -76.5667 38° Northeast 135 155 4,700 476 Climbing Potomac TRACON
Tue 11:16:01 PM 39.3500 -76.5333 57° Northeast 145 167 5,000 150 Climbing Potomac TRACON
Tue 11:17:01 PM 39.3833 -76.4833 49° Northeast 150 173 5,000  Level Potomac TRACON
Tue 11:18:01 PM 39.4167 -76.4500 38° Northeast 162 186 5,000  Level Potomac TRACON
Tue 11:19:01 PM 39.4500 -76.4000 49° Northeast 162 186 5,000  Level Potomac TRACON
Tue 11:20:01 PM 39.4667 -76.3500 67° East 167 192 5,000  Level Potomac TRACON
Tue 11:22:17 PM 39.5333 -76.2500 49° Northeast 169 194 5,000  Level Philadelphia TRACON
Tue 11:23:17 PM 39.5667 -76.2000 49° Northeast 169 194 5,000  Level Philadelphia TRACON
Tue 11:24:17 PM 39.6000 -76.1500 49° Northeast 170 196 5,000  Level Philadelphia TRACON
Tue 11:25:17 PM 39.6333 -76.1167 38° Northeast 169 194 5,000  Level Philadelphia TRACON
Tue 11:26:17 PM 39.6667 -76.0667 49° Northeast 173 199 5,000  Level Philadelphia TRACON
Tue 11:27:11 PM 39.6833 -76.0167 67° East 176 203 5,000  Level Philadelphia TRACON
Tue 11:28:11 PM 39.7167 -75.9667 49° Northeast 175 201 5,000  Level Philadelphia TRACON
Tue 11:29:17 PM 39.7333 -75.9000 72° East 176 203 5,000  Level Philadelphia TRACON
Tue 11:30:17 PM 39.7667 -75.8500 49° Northeast 176 203 5,000  Level Philadelphia TRACON
Tue 11:31:17 PM 39.8000 -75.8000 49° Northeast 171 197 5,000  Level Philadelphia TRACON
Tue 11:32:17 PM 39.8167 -75.7500 67° East 167 192 5,000  Level Philadelphia TRACON
Tue 11:33:17 PM 39.8500 -75.7000 49° Northeast 169 194 5,000  Level Philadelphia TRACON
Tue 11:34:17 PM 39.8667 -75.6500 67° East 164 189 5,000  Level Philadelphia TRACON
Tue 11:35:11 PM 39.9000 -75.6000 49° Northeast 166 191 5,000  Level Philadelphia TRACON
Tue 11:36:11 PM 39.9167 -75.5500 66° East 166 191 5,000  Level Philadelphia TRACON
Tue 11:37:17 PM 39.9500 -75.5000 49° Northeast 166 191 5,000  Level Philadelphia TRACON
Tue 11:38:17 PM 39.9833 -75.4500 49° Northeast 166 191 5,000  Level Philadelphia TRACON
Tue 11:39:17 PM 40.0000 -75.4000 66° East 167 192 5,000  Level Philadelphia TRACON
Tue 11:40:18 PM 40.0333 -75.3500 49° Northeast 167 192 5,000  Level Philadelphia TRACON
Tue 11:41:24 PM 40.0500 -75.3000 66° East 167 192 5,000  Level Philadelphia TRACON
Tue 11:42:24 PM 40.0833 -75.2500 49° Northeast 167 192 5,000  Level Philadelphia TRACON
Tue 11:43:24 PM 40.1167 -75.2000 49° Northeast 169 194 5,000 53 Level Philadelphia TRACON
Tue 11:44:18 PM 40.1333 -75.1500 66° East 169 194 5,100 53 Climbing Philadelphia TRACON
Tue 11:45:18 PM 40.1667 -75.1000 49° Northeast 170 196 5,100 -49 Level Philadelphia TRACON
Tue 11:46:21 PM 40.1833 -75.0333 72° East 171 197 5,000 -51 Descending New York TRACON
Tue 11:47:15 PM 40.2167 -74.9833 49° Northeast 172 198 5,000  Level New York TRACON
Tue 11:48:09 PM 40.2333 -74.9500 57° Northeast 172 198 5,000  Level New York TRACON
Tue 11:49:15 PM 40.2667 -74.8833 57° Northeast 167 192 5,000  Level New York TRACON
Tue 11:50:09 PM 40.3000 -74.8500 37° Northeast 165 190 5,000  Level New York TRACON
Tue 11:51:15 PM 40.3167 -74.8000 66° East 166 191 5,000  Level New York TRACON
Tue 11:52:15 PM 40.3500 -74.7500 49° Northeast 169 194 5,000 -143 Level New York TRACON
Tue 11:53:21 PM 40.3833 -74.7000 49° Northeast 181 208 4,700 -429 Descending New York TRACON
Tue 11:54:21 PM 40.4167 -74.6500 49° Northeast 183 211 4,100 -600 Descending New York TRACON
Tue 11:55:21 PM 40.4500 -74.6000 49° Northeast 183 211 3,500 -524 Descending New York TRACON
Tue 11:56:27 PM 40.5000 -74.5500 37° Northeast 183 211 3,000 -250 Descending New York TRACON
Tue 11:57:21 PM 40.5167 -74.5000 66° East 172 198 3,000  Level New York TRACON
Tue 11:58:15 PM 40.5500 -74.4667 37° Northeast 169 194 3,000 -111 Level New York TRACON
Tue 11:59:09 PM 40.5833 -74.4167 49° Northeast 173 199 2,800 -263 Descending New York TRACON
Wed 12:00:09 AM 40.6167 -74.3667 49° Northeast 182 209 2,500 -200 Descending New York TRACON
Wed 12:01:09 AM 40.6500 -74.3167 49° Northeast 175 201 2,400 -158 Descending New York TRACON
Wed 12:02:03 AM 40.6833 -74.2833 37° Northeast 183 211 2,200 -444 Descending New York TRACON
Wed 12:02:57 AM 40.7000 -74.2333 66° East 185 213 1,600 -600 Descending New York TRACON
Wed 12:04:03 AM 40.7333 -74.1833 49° Northeast 156 180 1,000 -545 Descending New York TRACON
Wed 12:06:00 AM 40.6925 -74.1687 52° Northeast  Level Estimated
Wed 12:13:00 AM 40.6925 -74.1687 52° Northeast  Level Estimated
Wed 12:14:00 AM 40.6925 -74.1687 52° Northeast  Level Estimated

Login

Don't have an account? Register now (free) for customized features, flight alerts, and more!